Terminal Aerodrome Forecast
Issued by NWS

Home | Current Version | Previous Version | Text Only | Print | Product List | Glossary On
Versions: 1 2 3 4 5 6 7 8 9 10 11 12 13 14 15
000
FTUS46 KLOX 251810 AAA
TAFSBA
TAF AMD
KSBA 251810Z 2518/2618 26012G22KT P6SM SKC
     FM252100 28015G25KT P6SM SCT200
     FM260100 33012KT P6SM SCT200 WS010/35035KT
     FM260600 34008KT P6SM SKC WS010/02035KT=

USA.gov is the U.S. government's official web portal to all federal, state and local government web resources and services.